sensor_id;sensor_type;location;lat;lon;timestamp;pressure;altitude;pressure_sealevel;temperature;humidity
4617;BME280;2321;42.704;23.384;2024-02-26T00:01:31;95007.00;;;8.89;nan
4617;BME280;2321;42.704;23.384;2024-02-26T00:03:59;95018.50;;;8.97;nan
4617;BME280;2321;42.704;23.384;2024-02-26T00:06:27;95009.09;;;8.94;nan
4617;BME280;2321;42.704;23.384;2024-02-26T00:08:55;95004.16;;;8.91;nan
4617;BME280;2321;42.704;23.384;2024-02-26T00:11:22;95010.06;;;8.86;nan
4617;BME280;2321;42.704;23.384;2024-02-26T00:13:49;95002.22;;;8.78;nan
4617;BME280;2321;42.704;23.384;2024-02-26T00:16:17;94996.47;;;8.74;nan
4617;BME280;2321;42.704;23.384;2024-02-26T00:18:44;94993.00;;;8.74;nan
4617;BME280;2321;42.704;23.384;2024-02-26T00:21:11;94999.50;;;8.71;nan
4617;BME280;2321;42.704;23.384;2024-02-26T00:23:38;95006.66;;;8.70;nan
4617;BME280;2321;42.704;23.384;2024-02-26T00:26:07;95012.97;;;8.69;nan
4617;BME280;2321;42.704;23.384;2024-02-26T00:28:36;95004.00;;;8.70;nan
4617;BME280;2321;42.704;23.384;2024-02-26T00:31:03;94995.38;;;8.68;nan
4617;BME280;2321;42.704;23.384;2024-02-26T00:33:32;95001.16;;;8.72;nan
4617;BME280;2321;42.704;23.384;2024-02-26T00:35:59;94993.00;;;8.74;nan
4617;BME280;2321;42.704;23.384;2024-02-26T00:38:26;94987.88;;;8.72;nan
4617;BME280;2321;42.704;23.384;2024-02-26T00:40:53;94986.59;;;8.68;nan
4617;BME280;2321;42.704;23.384;2024-02-26T00:43:20;94984.97;;;8.67;nan
4617;BME280;2321;42.704;23.384;2024-02-26T00:45:48;94978.22;;;8.64;nan
4617;BME280;2321;42.704;23.384;2024-02-26T00:48:15;94980.28;;;8.69;nan
4617;BME280;2321;42.704;23.384;2024-02-26T00:50:43;94978.03;;;8.66;nan
4617;BME280;2321;42.704;23.384;2024-02-26T00:53:10;94971.50;;;8.68;nan
4617;BME280;2321;42.704;23.384;2024-02-26T00:55:37;94968.47;;;8.71;nan
4617;BME280;2321;42.704;23.384;2024-02-26T00:58:04;94972.16;;;8.70;nan
4617;BME280;2321;42.704;23.384;2024-02-26T01:00:31;94968.84;;;8.68;nan
4617;BME280;2321;42.704;23.384;2024-02-26T01:02:58;94963.94;;;8.65;nan
4617;BME280;2321;42.704;23.384;2024-02-26T01:05:26;94968.03;;;8.68;nan
4617;BME280;2321;42.704;23.384;2024-02-26T01:07:54;94957.63;;;8.66;nan
4617;BME280;2321;42.704;23.384;2024-02-26T01:10:21;94954.56;;;8.69;nan
4617;BME280;2321;42.704;23.384;2024-02-26T01:12:48;94954.56;;;8.69;nan
4617;BME280;2321;42.704;23.384;2024-02-26T01:15:15;94960.28;;;8.66;nan
4617;BME280;2321;42.704;23.384;2024-02-26T01:17:44;94962.91;;;8.66;nan
4617;BME280;2321;42.704;23.384;2024-02-26T01:20:11;94960.28;;;8.66;nan
4617;BME280;2321;42.704;23.384;2024-02-26T01:22:38;94953.13;;;8.67;nan
4617;BME280;2321;42.704;23.384;2024-02-26T01:25:08;94965.00;;;8.71;nan
4617;BME280;2321;42.704;23.384;2024-02-26T01:27:36;94950.66;;;8.65;nan
4617;BME280;2321;42.704;23.384;2024-02-26T01:30:04;94956.22;;;8.70;nan
4617;BME280;2321;42.704;23.384;2024-02-26T01:32:31;94951.16;;;8.76;nan
4617;BME280;2321;42.704;23.384;2024-02-26T01:34:58;94949.50;;;8.75;nan
4617;BME280;2321;42.704;23.384;2024-02-26T01:37:25;94949.03;;;8.64;nan
4617;BME280;2321;42.704;23.384;2024-02-26T01:39:52;94948.69;;;8.52;nan
4617;BME280;2321;42.704;23.384;2024-02-26T01:42:21;94948.69;;;8.52;nan
4617;BME280;2321;42.704;23.384;2024-02-26T01:44:48;94946.22;;;8.50;nan
4617;BME280;2321;42.704;23.384;2024-02-26T01:47:15;94949.50;;;8.53;nan
4617;BME280;2321;42.704;23.384;2024-02-26T01:49:42;94945.47;;;8.57;nan
4617;BME280;2321;42.704;23.384;2024-02-26T01:52:10;94946.66;;;8.54;nan
4617;BME280;2321;42.704;23.384;2024-02-26T01:54:38;94939.16;;;8.58;nan
4617;BME280;2321;42.704;23.384;2024-02-26T01:57:06;94940.78;;;8.59;nan
4617;BME280;2321;42.704;23.384;2024-02-26T01:59:36;94942.28;;;8.62;nan
4617;BME280;2321;42.704;23.384;2024-02-26T02:02:06;94932.06;;;8.65;nan
4617;BME280;2321;42.704;23.384;2024-02-26T02:04:34;94927.97;;;8.63;nan
4617;BME280;2321;42.704;23.384;2024-02-26T02:07:02;94928.19;;;8.61;nan
4617;BME280;2321;42.704;23.384;2024-02-26T02:09:30;94933.28;;;8.63;nan
4617;BME280;2321;42.704;23.384;2024-02-26T02:11:58;94933.94;;;8.65;nan
4617;BME280;2321;42.704;23.384;2024-02-26T02:14:26;94933.72;;;8.66;nan
4617;BME280;2321;42.704;23.384;2024-02-26T02:16:54;94935.19;;;8.69;nan
4617;BME280;2321;42.704;23.384;2024-02-26T02:19:21;94933.34;;;8.69;nan
4617;BME280;2321;42.704;23.384;2024-02-26T02:21:50;94920.66;;;8.65;nan
4617;BME280;2321;42.704;23.384;2024-02-26T02:24:17;94931.47;;;8.63;nan
4617;BME280;2321;42.704;23.384;2024-02-26T02:26:44;94928.19;;;8.61;nan
4617;BME280;2321;42.704;23.384;2024-02-26T02:29:12;94927.81;;;8.64;nan
4617;BME280;2321;42.704;23.384;2024-02-26T02:31:39;94931.69;;;8.68;nan
4617;BME280;2321;42.704;23.384;2024-02-26T02:34:08;94937.28;;;8.74;nan
4617;BME280;2321;42.704;23.384;2024-02-26T02:36:52;94939.94;;;8.74;nan
4617;BME280;2321;42.704;23.384;2024-02-26T02:39:19;94939.72;;;8.75;nan
4617;BME280;2321;42.704;23.384;2024-02-26T02:41:47;94938.88;;;8.75;nan
4617;BME280;2321;42.704;23.384;2024-02-26T02:44:14;94935.41;;;8.74;nan
4617;BME280;2321;42.704;23.384;2024-02-26T02:46:41;94937.69;;;8.77;nan
4617;BME280;2321;42.704;23.384;2024-02-26T02:49:09;94932.81;;;8.81;nan
4617;BME280;2321;42.704;23.384;2024-02-26T02:51:36;94944.69;;;8.85;nan
4617;BME280;2321;42.704;23.384;2024-02-26T02:54:05;94938.81;;;8.90;nan
4617;BME280;2321;42.704;23.384;2024-02-26T02:56:32;94943.94;;;8.91;nan
4617;BME280;2321;42.704;23.384;2024-02-26T02:58:59;94950.47;;;8.96;nan
4617;BME280;2321;42.704;23.384;2024-02-26T03:01:26;94945.94;;;8.89;nan
4617;BME280;2321;42.704;23.384;2024-02-26T03:03:53;94935.09;;;8.84;nan
4617;BME280;2321;42.704;23.384;2024-02-26T03:06:20;94938.78;;;8.83;nan
4617;BME280;2321;42.704;23.384;2024-02-26T03:08:47;94944.69;;;8.85;nan
4617;BME280;2321;42.704;23.384;2024-02-26T03:11:16;94947.78;;;8.89;nan
4617;BME280;2321;42.704;23.384;2024-02-26T03:13:43;94953.91;;;8.89;nan
4617;BME280;2321;42.704;23.384;2024-02-26T03:16:11;94950.25;;;8.90;nan
4617;BME280;2321;42.704;23.384;2024-02-26T03:18:38;94947.81;;;8.96;nan
4617;BME280;2321;42.704;23.384;2024-02-26T03:21:06;94943.78;;;9.00;nan
4617;BME280;2321;42.704;23.384;2024-02-26T03:23:33;94936.44;;;9.02;nan
4617;BME280;2321;42.704;23.384;2024-02-26T03:26:02;94943.78;;;9.00;nan
4617;BME280;2321;42.704;23.384;2024-02-26T03:28:31;94940.50;;;8.98;nan
4617;BME280;2321;42.704;23.384;2024-02-26T03:30:59;94931.91;;;8.96;nan
4617;BME280;2321;42.704;23.384;2024-02-26T03:33:26;94933.31;;;8.91;nan
4617;BME280;2321;42.704;23.384;2024-02-26T03:35:53;94926.19;;;8.92;nan
4617;BME280;2321;42.704;23.384;2024-02-26T03:38:20;94926.34;;;8.90;nan
4617;BME280;2321;42.704;23.384;2024-02-26T03:40:47;94931.03;;;8.88;nan
4617;BME280;2321;42.704;23.384;2024-02-26T03:43:14;94930.66;;;8.91;nan
4617;BME280;2321;42.704;23.384;2024-02-26T03:45:43;94932.28;;;8.92;nan
4617;BME280;2321;42.704;23.384;2024-02-26T03:48:10;94928.78;;;8.85;nan
4617;BME280;2321;42.704;23.384;2024-02-26T03:50:37;94925.88;;;8.80;nan
4617;BME280;2321;42.704;23.384;2024-02-26T03:53:04;94922.19;;;8.81;nan
4617;BME280;2321;42.704;23.384;2024-02-26T03:55:34;94922.41;;;8.79;nan
4617;BME280;2321;42.704;23.384;2024-02-26T03:58:01;94925.88;;;8.80;nan
4617;BME280;2321;42.704;23.384;2024-02-26T04:00:28;94918.88;;;8.72;nan
4617;BME280;2321;42.704;23.384;2024-02-26T04:02:57;94924.06;;;8.58;nan
4617;BME280;2321;42.704;23.384;2024-02-26T04:05:24;94928.91;;;8.55;nan
4617;BME280;2321;42.704;23.384;2024-02-26T04:07:51;94925.44;;;8.54;nan
4617;BME280;2321;42.704;23.384;2024-02-26T04:10:18;94917.91;;;8.58;nan
4617;BME280;2321;42.704;23.384;2024-02-26T04:12:45;94919.88;;;8.49;nan
4617;BME280;2321;42.704;23.384;2024-02-26T04:15:12;94920.28;;;8.46;nan
4617;BME280;2321;42.704;23.384;2024-02-26T04:17:40;94924.13;;;8.43;nan
4617;BME280;2321;42.704;23.384;2024-02-26T04:20:13;94912.69;;;8.43;nan
4617;BME280;2321;42.704;23.384;2024-02-26T04:22:41;94910.88;;;8.43;nan
4617;BME280;2321;42.704;23.384;2024-02-26T04:25:08;94904.47;;;8.37;nan
4617;BME280;2321;42.704;23.384;2024-02-26T04:27:35;94906.94;;;8.39;nan
4617;BME280;2321;42.704;23.384;2024-02-26T04:30:05;94913.06;;;8.39;nan
4617;BME280;2321;42.704;23.384;2024-02-26T04:32:32;94910.59;;;8.38;nan
4617;BME280;2321;42.704;23.384;2024-02-26T04:35:00;94908.97;;;8.37;nan
4617;BME280;2321;42.704;23.384;2024-02-26T04:37:28;94899.91;;;8.31;nan
4617;BME280;2321;42.704;23.384;2024-02-26T04:39:58;94911.94;;;8.27;nan
4617;BME280;2321;42.704;23.384;2024-02-26T04:42:25;94911.72;;;8.28;nan
4617;BME280;2321;42.704;23.384;2024-02-26T04:44:52;94914.00;;;8.32;nan
4617;BME280;2321;42.704;23.384;2024-02-26T04:47:19;94913.84;;;8.33;nan
4617;BME280;2321;42.704;23.384;2024-02-26T04:49:47;94919.97;;;8.34;nan
4617;BME280;2321;42.704;23.384;2024-02-26T04:52:15;94914.44;;;8.35;nan
4617;BME280;2321;42.704;23.384;2024-02-26T04:54:43;94919.59;;;8.37;nan
4617;BME280;2321;42.704;23.384;2024-02-26T04:57:10;94916.72;;;8.38;nan
4617;BME280;2321;42.704;23.384;2024-02-26T04:59:37;94921.03;;;8.39;nan
4617;BME280;2321;42.704;23.384;2024-02-26T05:02:06;94922.66;;;8.41;nan
4617;BME280;2321;42.704;23.384;2024-02-26T05:04:33;94917.09;;;8.35;nan
4617;BME280;2321;42.704;23.384;2024-02-26T05:07:00;94926.72;;;8.36;nan
4617;BME280;2321;42.704;23.384;2024-02-26T05:09:27;94920.13;;;8.32;nan
4617;BME280;2321;42.704;23.384;2024-02-26T05:11:56;94937.13;;;8.38;nan
4617;BME280;2321;42.704;23.384;2024-02-26T05:14:23;94930.81;;;8.39;nan
4617;BME280;2321;42.704;23.384;2024-02-26T05:16:50;94936.28;;;8.37;nan
4617;BME280;2321;42.704;23.384;2024-02-26T05:19:17;94947.28;;;8.34;nan
4617;BME280;2321;42.704;23.384;2024-02-26T05:21:44;94951.59;;;8.35;nan
4617;BME280;2321;42.704;23.384;2024-02-26T05:24:12;94948.75;;;8.37;nan
4617;BME280;2321;42.704;23.384;2024-02-26T05:26:41;94952.88;;;8.39;nan
4617;BME280;2321;42.704;23.384;2024-02-26T05:29:09;94952.66;;;8.41;nan
4617;BME280;2321;42.704;23.384;2024-02-26T05:31:37;94958.16;;;8.39;nan
4617;BME280;2321;42.704;23.384;2024-02-26T05:34:04;94961.44;;;8.42;nan
4617;BME280;2321;42.704;23.384;2024-02-26T05:36:31;94955.75;;;8.45;nan
4617;BME280;2321;42.704;23.384;2024-02-26T05:38:59;94966.00;;;8.48;nan
4617;BME280;2321;42.704;23.384;2024-02-26T05:41:26;94974.78;;;8.48;nan
4617;BME280;2321;42.704;23.384;2024-02-26T05:43:53;94977.50;;;8.55;nan
4617;BME280;2321;42.704;23.384;2024-02-26T05:46:22;94978.50;;;8.54;nan
4617;BME280;2321;42.704;23.384;2024-02-26T05:48:51;94968.72;;;8.55;nan
4617;BME280;2321;42.704;23.384;2024-02-26T05:51:19;94969.16;;;8.58;nan
4617;BME280;2321;42.704;23.384;2024-02-26T05:53:46;94974.66;;;8.57;nan
4617;BME280;2321;42.704;23.384;2024-02-26T05:56:19;94977.56;;;8.62;nan
4617;BME280;2321;42.704;23.384;2024-02-26T05:58:46;94975.19;;;8.67;nan
4617;BME280;2321;42.704;23.384;2024-02-26T06:01:15;94982.31;;;8.67;nan
4617;BME280;2321;42.704;23.384;2024-02-26T06:03:44;94989.09;;;8.69;nan
4617;BME280;2321;42.704;23.384;2024-02-26T06:06:11;94991.72;;;8.69;nan
4617;BME280;2321;42.704;23.384;2024-02-26T06:08:38;94992.56;;;8.70;nan
4617;BME280;2321;42.704;23.384;2024-02-26T06:11:06;94992.94;;;8.67;nan
4617;BME280;2321;42.704;23.384;2024-02-26T06:13:33;94985.59;;;8.69;nan
4617;BME280;2321;42.704;23.384;2024-02-26T06:16:01;94992.94;;;8.67;nan
4617;BME280;2321;42.704;23.384;2024-02-26T06:18:28;94995.78;;;8.65;nan
4617;BME280;2321;42.704;23.384;2024-02-26T06:20:56;94989.22;;;8.61;nan
4617;BME280;2321;42.704;23.384;2024-02-26T06:23:23;94997.13;;;8.76;nan
4617;BME280;2321;42.704;23.384;2024-02-26T06:25:51;95000.00;;;8.81;nan
4617;BME280;2321;42.704;23.384;2024-02-26T06:28:18;94999.44;;;8.86;nan
4617;BME280;2321;42.704;23.384;2024-02-26T06:30:45;95001.91;;;8.88;nan
4617;BME280;2321;42.704;23.384;2024-02-26T06:33:12;94996.38;;;8.89;nan
4617;BME280;2321;42.704;23.384;2024-02-26T06:35:41;94994.00;;;8.95;nan
4617;BME280;2321;42.704;23.384;2024-02-26T06:38:11;94997.03;;;8.91;nan
4617;BME280;2321;42.704;23.384;2024-02-26T06:40:41;95000.50;;;8.92;nan
4617;BME280;2321;42.704;23.384;2024-02-26T06:43:08;94990.31;;;8.96;nan
4617;BME280;2321;42.704;23.384;2024-02-26T06:45:35;94998.94;;;8.98;nan
4617;BME280;2321;42.704;23.384;2024-02-26T06:48:02;94999.53;;;9.00;nan
4617;BME280;2321;42.704;23.384;2024-02-26T06:50:29;94994.69;;;9.03;nan
4617;BME280;2321;42.704;23.384;2024-02-26T06:52:56;94993.47;;;9.06;nan
4617;BME280;2321;42.704;23.384;2024-02-26T06:55:25;94987.72;;;9.02;nan
4617;BME280;2321;42.704;23.384;2024-02-26T06:57:52;94986.22;;;8.93;nan
4617;BME280;2321;42.704;23.384;2024-02-26T07:00:19;94996.66;;;8.95;nan
4617;BME280;2321;42.704;23.384;2024-02-26T07:02:46;94980.91;;;8.93;nan
4617;BME280;2321;42.704;23.384;2024-02-26T07:05:13;94989.94;;;8.99;nan
4617;BME280;2321;42.704;23.384;2024-02-26T07:07:42;94999.16;;;9.03;nan
4617;BME280;2321;42.704;23.384;2024-02-26T07:10:10;94992.41;;;9.00;nan
4617;BME280;2321;42.704;23.384;2024-02-26T07:12:39;95001.31;;;8.92;nan
4617;BME280;2321;42.704;23.384;2024-02-26T07:15:09;95005.69;;;9.00;nan
4617;BME280;2321;42.704;23.384;2024-02-26T07:17:36;95009.34;;;8.99;nan
4617;BME280;2321;42.704;23.384;2024-02-26T07:20:04;95011.06;;;9.07;nan
4617;BME280;2321;42.704;23.384;2024-02-26T07:22:31;95005.97;;;9.12;nan
4617;BME280;2321;42.704;23.384;2024-02-26T07:25:01;95016.53;;;9.06;nan
4617;BME280;2321;42.704;23.384;2024-02-26T07:27:29;95008.78;;;9.04;nan
4617;BME280;2321;42.704;23.384;2024-02-26T07:29:57;95015.03;;;8.96;nan
4617;BME280;2321;42.704;23.384;2024-02-26T07:32:25;95013.19;;;8.97;nan
4617;BME280;2321;42.704;23.384;2024-02-26T07:34:52;95017.50;;;8.98;nan
4617;BME280;2321;42.704;23.384;2024-02-26T07:37:19;95008.72;;;8.97;nan
4617;BME280;2321;42.704;23.384;2024-02-26T07:39:46;95010.53;;;8.97;nan
4617;BME280;2321;42.704;23.384;2024-02-26T07:42:13;95019.78;;;9.01;nan
4617;BME280;2321;42.704;23.384;2024-02-26T07:44:40;95019.03;;;9.07;nan
4617;BME280;2321;42.704;23.384;2024-02-26T07:47:10;95017.47;;;9.20;nan
4617;BME280;2321;42.704;23.384;2024-02-26T07:49:37;95009.81;;;9.32;nan
4617;BME280;2321;42.704;23.384;2024-02-26T07:52:04;95015.41;;;9.44;nan
4617;BME280;2321;42.704;23.384;2024-02-26T07:54:32;95025.03;;;9.52;nan
4617;BME280;2321;42.704;23.384;2024-02-26T07:56:59;95027.53;;;9.60;nan
4617;BME280;2321;42.704;23.384;2024-02-26T07:59:26;95018.81;;;9.73;nan
4617;BME280;2321;42.704;23.384;2024-02-26T08:01:54;95015.19;;;9.81;nan
4617;BME280;2321;42.704;23.384;2024-02-26T08:04:22;95015.44;;;9.86;nan
4617;BME280;2321;42.704;23.384;2024-02-26T08:06:50;95007.50;;;9.93;nan
4617;BME280;2321;42.704;23.384;2024-02-26T08:09:17;94996.84;;;10.00;nan
4617;BME280;2321;42.704;23.384;2024-02-26T08:11:44;95002.63;;;10.10;nan
4617;BME280;2321;42.704;23.384;2024-02-26T08:14:11;94999.38;;;10.15;nan
4617;BME280;2321;42.704;23.384;2024-02-26T08:16:38;95003.09;;;10.21;nan
4617;BME280;2321;42.704;23.384;2024-02-26T08:19:05;94999.22;;;10.23;nan
4617;BME280;2321;42.704;23.384;2024-02-26T08:21:33;95003.72;;;10.30;nan
4617;BME280;2321;42.704;23.384;2024-02-26T08:24:02;94996.34;;;10.32;nan
4617;BME280;2321;42.704;23.384;2024-02-26T08:26:29;95003.97;;;10.42;nan
4617;BME280;2321;42.704;23.384;2024-02-26T08:28:56;94999.91;;;10.53;nan
4617;BME280;2321;42.704;23.384;2024-02-26T08:31:23;95000.13;;;10.65;nan
4617;BME280;2321;42.704;23.384;2024-02-26T08:33:51;95002.63;;;10.80;nan
4617;BME280;2321;42.704;23.384;2024-02-26T08:36:18;94997.72;;;10.91;nan
4617;BME280;2321;42.704;23.384;2024-02-26T08:38:47;95002.44;;;11.02;nan
4617;BME280;2321;42.704;23.384;2024-02-26T08:41:14;95001.41;;;11.17;nan
4617;BME280;2321;42.704;23.384;2024-02-26T08:43:41;94984.59;;;11.23;nan
4617;BME280;2321;42.704;23.384;2024-02-26T08:46:08;94995.25;;;11.37;nan
4617;BME280;2321;42.704;23.384;2024-02-26T08:48:36;94993.38;;;11.51;nan
4617;BME280;2321;42.704;23.384;2024-02-26T08:51:05;94993.53;;;11.63;nan
4617;BME280;2321;42.704;23.384;2024-02-26T08:53:33;94991.88;;;11.75;nan
4617;BME280;2321;42.704;23.384;2024-02-26T08:56:02;94998.63;;;11.85;nan
4617;BME280;2321;42.704;23.384;2024-02-26T08:58:29;95000.03;;;11.94;nan
4617;BME280;2321;42.704;23.384;2024-02-26T09:00:56;95002.44;;;12.03;nan
4617;BME280;2321;42.704;23.384;2024-02-26T09:03:23;94998.50;;;12.12;nan
4617;BME280;2321;42.704;23.384;2024-02-26T09:05:51;94997.50;;;12.20;nan
4617;BME280;2321;42.704;23.384;2024-02-26T09:08:18;94987.41;;;12.29;nan
4617;BME280;2321;42.704;23.384;2024-02-26T09:10:45;94995.97;;;12.38;nan
4617;BME280;2321;42.704;23.384;2024-02-26T09:13:13;94990.19;;;12.48;nan
4617;BME280;2321;42.704;23.384;2024-02-26T09:15:40;94983.91;;;12.61;nan
4617;BME280;2321;42.704;23.384;2024-02-26T09:18:07;94989.22;;;12.68;nan
4617;BME280;2321;42.704;23.384;2024-02-26T09:20:34;94982.00;;;12.75;nan
4617;BME280;2321;42.704;23.384;2024-02-26T09:23:04;94981.94;;;12.82;nan
4617;BME280;2321;42.704;23.384;2024-02-26T09:25:31;94981.88;;;12.89;nan
4617;BME280;2321;42.704;23.384;2024-02-26T09:27:59;94968.44;;;13.02;nan
4617;BME280;2321;42.704;23.384;2024-02-26T09:30:27;94968.16;;;13.11;nan
4617;BME280;2321;42.704;23.384;2024-02-26T09:32:54;94970.53;;;13.19;nan
4617;BME280;2321;42.704;23.384;2024-02-26T09:35:21;94963.28;;;13.26;nan
4617;BME280;2321;42.704;23.384;2024-02-26T09:37:49;94961.97;;;13.36;nan
4617;BME280;2321;42.704;23.384;2024-02-26T09:40:16;94956.75;;;13.41;nan
4617;BME280;2321;42.704;23.384;2024-02-26T09:42:44;94956.25;;;13.51;nan
4617;BME280;2321;42.704;23.384;2024-02-26T09:45:18;94959.88;;;13.64;nan
4617;BME280;2321;42.704;23.384;2024-02-26T09:47:48;94957.72;;;13.72;nan
4617;BME280;2321;42.704;23.384;2024-02-26T09:50:17;94954.72;;;13.81;nan
4617;BME280;2321;42.704;23.384;2024-02-26T09:52:48;94962.44;;;13.89;nan
4617;BME280;2321;42.704;23.384;2024-02-26T09:55:15;94954.97;;;13.98;nan
4617;BME280;2321;42.704;23.384;2024-02-26T09:57:45;94951.59;;;14.03;nan
4617;BME280;2321;42.704;23.384;2024-02-26T10:00:17;94955.81;;;14.11;nan
4617;BME280;2321;42.704;23.384;2024-02-26T10:02:48;94952.84;;;14.19;nan
4617;BME280;2321;42.704;23.384;2024-02-26T10:05:16;94952.97;;;14.24;nan
4617;BME280;2321;42.704;23.384;2024-02-26T10:07:45;94957.88;;;14.27;nan
4617;BME280;2321;42.704;23.384;2024-02-26T10:10:13;94964.44;;;14.32;nan
4617;BME280;2321;42.704;23.384;2024-02-26T10:12:42;94964.75;;;14.35;nan
4617;BME280;2321;42.704;23.384;2024-02-26T10:15:09;94947.22;;;14.40;nan
4617;BME280;2321;42.704;23.384;2024-02-26T10:17:38;94951.28;;;14.42;nan
4617;BME280;2321;42.704;23.384;2024-02-26T10:20:14;94947.00;;;14.41;nan
4617;BME280;2321;42.704;23.384;2024-02-26T10:22:43;94941.53;;;14.48;nan
4617;BME280;2321;42.704;23.384;2024-02-26T10:25:10;94946.41;;;14.51;nan
4617;BME280;2321;42.704;23.384;2024-02-26T10:27:37;94938.88;;;14.60;nan
4617;BME280;2321;42.704;23.384;2024-02-26T10:30:16;94938.19;;;14.65;nan
4617;BME280;2321;42.704;23.384;2024-02-26T10:32:44;94934.00;;;14.69;nan
4617;BME280;2321;42.704;23.384;2024-02-26T10:35:17;94927.03;;;14.68;nan
4617;BME280;2321;42.704;23.384;2024-02-26T10:37:46;94929.00;;;14.73;nan
4617;BME280;2321;42.704;23.384;2024-02-26T10:40:15;94925.88;;;14.76;nan
4617;BME280;2321;42.704;23.384;2024-02-26T10:42:43;94932.41;;;14.80;nan
4617;BME280;2321;42.704;23.384;2024-02-26T10:45:11;94922.88;;;14.84;nan
4617;BME280;2321;42.704;23.384;2024-02-26T10:47:40;94925.91;;;14.88;nan
4617;BME280;2321;42.704;23.384;2024-02-26T10:50:08;94914.97;;;14.89;nan
4617;BME280;2321;42.704;23.384;2024-02-26T10:52:37;94910.75;;;14.94;nan
4617;BME280;2321;42.704;23.384;2024-02-26T10:55:05;94910.75;;;14.94;nan
4617;BME280;2321;42.704;23.384;2024-02-26T10:57:35;94911.72;;;14.99;nan
4617;BME280;2321;42.704;23.384;2024-02-26T11:00:05;94912.06;;;15.03;nan
4617;BME280;2321;42.704;23.384;2024-02-26T11:02:36;94916.00;;;15.00;nan
4617;BME280;2321;42.704;23.384;2024-02-26T11:07:41;94900.75;;;15.13;nan
4617;BME280;2321;42.704;23.384;2024-02-26T11:10:21;94902.97;;;15.16;nan
4617;BME280;2321;42.704;23.384;2024-02-26T11:13:17;94911.25;;;15.14;nan
4617;BME280;2321;42.704;23.384;2024-02-26T11:15:46;94905.06;;;15.14;nan
4617;BME280;2321;42.704;23.384;2024-02-26T11:18:15;94902.63;;;15.12;nan
4617;BME280;2321;42.704;23.384;2024-02-26T11:20:42;94898.44;;;15.17;nan
4617;BME280;2321;42.704;23.384;2024-02-26T11:23:12;94905.19;;;15.19;nan
4617;BME280;2321;42.704;23.384;2024-02-26T11:25:39;94904.97;;;15.21;nan
4617;BME280;2321;42.704;23.384;2024-02-26T11:28:10;94898.78;;;15.20;nan
4617;BME280;2321;42.704;23.384;2024-02-26T11:30:42;94903.44;;;15.25;nan
4617;BME280;2321;42.704;23.384;2024-02-26T11:33:12;94896.56;;;15.29;nan
4617;BME280;2321;42.704;23.384;2024-02-26T11:35:43;94897.47;;;15.35;nan
4617;BME280;2321;42.704;23.384;2024-02-26T11:38:17;94892.81;;;15.42;nan
4617;BME280;2321;42.704;23.384;2024-02-26T11:40:45;94897.13;;;15.43;nan
4617;BME280;2321;42.704;23.384;2024-02-26T11:43:12;94883.47;;;15.45;nan
4617;BME280;2321;42.704;23.384;2024-02-26T11:45:52;94890.81;;;15.50;nan
4617;BME280;2321;42.704;23.384;2024-02-26T11:48:21;94881.13;;;15.49;nan
4617;BME280;2321;42.704;23.384;2024-02-26T11:50:49;94881.47;;;15.52;nan
4617;BME280;2321;42.704;23.384;2024-02-26T11:53:22;94871.56;;;15.53;nan
4617;BME280;2321;42.704;23.384;2024-02-26T11:56:19;94877.84;;;15.58;nan
4617;BME280;2321;42.704;23.384;2024-02-26T11:58:47;94874.94;;;15.60;nan
4617;BME280;2321;42.704;23.384;2024-02-26T12:01:40;94880.66;;;15.64;nan
4617;BME280;2321;42.704;23.384;2024-02-26T12:04:11;94867.78;;;15.66;nan
4617;BME280;2321;42.704;23.384;2024-02-26T12:06:46;94873.63;;;15.63;nan
4617;BME280;2321;42.704;23.384;2024-02-26T12:09:30;94876.66;;;15.66;nan
4617;BME280;2321;42.704;23.384;2024-02-26T12:11:57;94881.78;;;15.68;nan
4617;BME280;2321;42.704;23.384;2024-02-26T12:14:25;94874.56;;;15.68;nan
4617;BME280;2321;42.704;23.384;2024-02-26T12:16:53;94869.75;;;15.71;nan
4617;BME280;2321;42.704;23.384;2024-02-26T12:19:22;94874.66;;;15.74;nan
4617;BME280;2321;42.704;23.384;2024-02-26T12:21:51;94865.06;;;15.78;nan
4617;BME280;2321;42.704;23.384;2024-02-26T12:24:20;94876.72;;;15.84;nan
4617;BME280;2321;42.704;23.384;2024-02-26T12:26:48;94872.28;;;15.89;nan
4617;BME280;2321;42.704;23.384;2024-02-26T12:29:15;94867.47;;;15.92;nan
4617;BME280;2321;42.704;23.384;2024-02-26T12:31:42;94875.38;;;15.98;nan
4617;BME280;2321;42.704;23.384;2024-02-26T12:42:35;94883.22;;;16.00;nan
4617;BME280;2321;42.704;23.384;2024-02-26T12:45:06;94868.63;;;15.96;nan
4617;BME280;2321;42.704;23.384;2024-02-26T12:47:38;94878.03;;;16.10;nan
4617;BME280;2321;42.704;23.384;2024-02-26T12:50:08;94870.81;;;16.11;nan
4617;BME280;2321;42.704;23.384;2024-02-26T12:52:37;94872.88;;;16.21;nan
4617;BME280;2321;42.704;23.384;2024-02-26T12:55:06;94877.63;;;16.31;nan
4617;BME280;2321;42.704;23.384;2024-02-26T12:57:36;94879.09;;;16.39;nan
4617;BME280;2321;42.704;23.384;2024-02-26T13:00:05;94863.38;;;16.48;nan
4617;BME280;2321;42.704;23.384;2024-02-26T13:02:35;94869.09;;;16.51;nan
4617;BME280;2321;42.704;23.384;2024-02-26T13:05:03;94864.88;;;16.55;nan
4617;BME280;2321;42.704;23.384;2024-02-26T13:07:30;94869.97;;;16.57;nan
4617;BME280;2321;42.704;23.384;2024-02-26T13:09:58;94866.47;;;16.57;nan
4617;BME280;2321;42.704;23.384;2024-02-26T13:12:26;94865.91;;;16.54;nan
4617;BME280;2321;42.704;23.384;2024-02-26T13:15:01;94863.78;;;16.57;nan
4617;BME280;2321;42.704;23.384;2024-02-26T13:17:31;94864.28;;;16.53;nan
4617;BME280;2321;42.704;23.384;2024-02-26T13:25:20;94866.56;;;16.44;nan
4617;BME280;2321;42.704;23.384;2024-02-26T13:27:47;94862.75;;;16.40;nan
4617;BME280;2321;42.704;23.384;2024-02-26T13:30:16;94866.88;;;16.48;nan
4617;BME280;2321;42.704;23.384;2024-02-26T13:32:44;94868.69;;;16.42;nan
4617;BME280;2321;42.704;23.384;2024-02-26T13:35:12;94868.13;;;16.40;nan
4617;BME280;2321;42.704;23.384;2024-02-26T13:37:40;94873.00;;;16.43;nan
4617;BME280;2321;42.704;23.384;2024-02-26T13:40:08;94863.63;;;16.46;nan
4617;BME280;2321;42.704;23.384;2024-02-26T13:42:36;94867.72;;;16.49;nan
4617;BME280;2321;42.704;23.384;2024-02-26T13:45:04;94870.47;;;16.54;nan
4617;BME280;2321;42.704;23.384;2024-02-26T13:47:33;94880.41;;;16.53;nan
4617;BME280;2321;42.704;23.384;2024-02-26T13:50:01;94874.78;;;16.55;nan
4617;BME280;2321;42.704;23.384;2024-02-26T13:52:28;94872.94;;;16.55;nan
4617;BME280;2321;42.704;23.384;2024-02-26T13:54:57;94870.25;;;16.55;nan
4617;BME280;2321;42.704;23.384;2024-02-26T13:57:25;94877.47;;;16.55;nan
4617;BME280;2321;42.704;23.384;2024-02-26T13:59:52;94875.34;;;16.57;nan
4617;BME280;2321;42.704;23.384;2024-02-26T14:02:19;94875.34;;;16.57;nan